sensor_id;sensor_type;location;lat;lon;timestamp;P1;durP1;ratioP1;P2;durP2;ratioP2
70825;SDS011;58446;41.490;22.098;2023-02-28T00:00:27;19.63;;;11.07;;
70825;SDS011;58446;41.490;22.098;2023-02-28T00:02:53;20.08;;;11.90;;
70825;SDS011;58446;41.490;22.098;2023-02-28T00:05:20;20.23;;;11.75;;
70825;SDS011;58446;41.490;22.098;2023-02-28T00:07:48;20.05;;;11.68;;
70825;SDS011;58446;41.490;22.098;2023-02-28T00:10:16;20.83;;;11.63;;
70825;SDS011;58446;41.490;22.098;2023-02-28T00:12:46;20.42;;;11.43;;
70825;SDS011;58446;41.490;22.098;2023-02-28T00:15:13;19.55;;;10.75;;
70825;SDS011;58446;41.490;22.098;2023-02-28T00:17:38;21.85;;;12.25;;
70825;SDS011;58446;41.490;22.098;2023-02-28T00:20:05;17.80;;;10.93;;
70825;SDS011;58446;41.490;22.098;2023-02-28T00:22:38;20.63;;;11.70;;
70825;SDS011;58446;41.490;22.098;2023-02-28T00:25:06;19.05;;;10.57;;
70825;SDS011;58446;41.490;22.098;2023-02-28T00:27:33;18.37;;;10.43;;
70825;SDS011;58446;41.490;22.098;2023-02-28T00:30:00;20.35;;;10.63;;
70825;SDS011;58446;41.490;22.098;2023-02-28T00:32:26;18.25;;;10.63;;
70825;SDS011;58446;41.490;22.098;2023-02-28T00:34:51;19.30;;;10.70;;
70825;SDS011;58446;41.490;22.098;2023-02-28T00:37:17;19.50;;;10.63;;
70825;SDS011;58446;41.490;22.098;2023-02-28T00:39:43;18.70;;;10.53;;
70825;SDS011;58446;41.490;22.098;2023-02-28T00:42:09;19.60;;;12.07;;
70825;SDS011;58446;41.490;22.098;2023-02-28T00:44:34;21.50;;;12.90;;
70825;SDS011;58446;41.490;22.098;2023-02-28T00:47:00;21.63;;;12.57;;
70825;SDS011;58446;41.490;22.098;2023-02-28T00:49:26;23.43;;;12.33;;
70825;SDS011;58446;41.490;22.098;2023-02-28T00:51:52;24.10;;;15.43;;
70825;SDS011;58446;41.490;22.098;2023-02-28T00:54:19;21.08;;;12.63;;
70825;SDS011;58446;41.490;22.098;2023-02-28T00:56:45;21.93;;;12.23;;
70825;SDS011;58446;41.490;22.098;2023-02-28T00:59:11;23.42;;;15.68;;
70825;SDS011;58446;41.490;22.098;2023-02-28T01:01:38;22.25;;;13.38;;
70825;SDS011;58446;41.490;22.098;2023-02-28T01:04:04;25.13;;;14.27;;
70825;SDS011;58446;41.490;22.098;2023-02-28T01:06:30;22.25;;;12.02;;
70825;SDS011;58446;41.490;22.098;2023-02-28T01:08:57;20.17;;;12.38;;
70825;SDS011;58446;41.490;22.098;2023-02-28T01:11:23;23.00;;;12.93;;
70825;SDS011;58446;41.490;22.098;2023-02-28T01:13:49;24.53;;;13.83;;
70825;SDS011;58446;41.490;22.098;2023-02-28T01:16:15;25.27;;;14.55;;
70825;SDS011;58446;41.490;22.098;2023-02-28T01:18:40;24.83;;;13.90;;
70825;SDS011;58446;41.490;22.098;2023-02-28T01:21:07;25.40;;;14.45;;
70825;SDS011;58446;41.490;22.098;2023-02-28T01:23:35;22.50;;;13.52;;
70825;SDS011;58446;41.490;22.098;2023-02-28T01:26:07;23.63;;;13.23;;
70825;SDS011;58446;41.490;22.098;2023-02-28T01:28:35;21.83;;;12.65;;
70825;SDS011;58446;41.490;22.098;2023-02-28T01:31:01;24.60;;;14.55;;
70825;SDS011;58446;41.490;22.098;2023-02-28T01:33:27;23.60;;;13.67;;
70825;SDS011;58446;41.490;22.098;2023-02-28T01:36:04;23.77;;;13.23;;
70825;SDS011;58446;41.490;22.098;2023-02-28T01:38:38;23.48;;;12.82;;
70825;SDS011;58446;41.490;22.098;2023-02-28T01:41:03;25.10;;;12.95;;
70825;SDS011;58446;41.490;22.098;2023-02-28T01:43:30;25.77;;;14.33;;
70825;SDS011;58446;41.490;22.098;2023-02-28T01:45:58;24.75;;;13.95;;
70825;SDS011;58446;41.490;22.098;2023-02-28T01:48:25;26.23;;;14.65;;
70825;SDS011;58446;41.490;22.098;2023-02-28T01:50:54;27.52;;;14.85;;
70825;SDS011;58446;41.490;22.098;2023-02-28T01:53:26;25.35;;;13.15;;
70825;SDS011;58446;41.490;22.098;2023-02-28T01:55:57;28.90;;;16.73;;
70825;SDS011;58446;41.490;22.098;2023-02-28T01:58:23;28.40;;;14.93;;
70825;SDS011;58446;41.490;22.098;2023-02-28T02:00:49;27.05;;;14.45;;
70825;SDS011;58446;41.490;22.098;2023-02-28T02:03:16;25.20;;;13.88;;
70825;SDS011;58446;41.490;22.098;2023-02-28T02:05:46;24.93;;;14.13;;
70825;SDS011;58446;41.490;22.098;2023-02-28T02:08:20;24.13;;;13.05;;
70825;SDS011;58446;41.490;22.098;2023-02-28T02:37:16;24.10;;;12.80;;
70825;SDS011;58446;41.490;22.098;2023-02-28T02:40:04;22.10;;;12.57;;
70825;SDS011;58446;41.490;22.098;2023-02-28T02:42:47;24.45;;;12.65;;
70825;SDS011;58446;41.490;22.098;2023-02-28T02:45:32;25.80;;;13.95;;
70825;SDS011;58446;41.490;22.098;2023-02-28T02:48:02;25.67;;;14.20;;
70825;SDS011;58446;41.490;22.098;2023-02-28T02:50:33;25.95;;;14.63;;
70825;SDS011;58446;41.490;22.098;2023-02-28T02:53:11;28.53;;;14.73;;
70825;SDS011;58446;41.490;22.098;2023-02-28T02:55:40;27.75;;;14.30;;
70825;SDS011;58446;41.490;22.098;2023-02-28T02:58:10;26.15;;;12.98;;
70825;SDS011;58446;41.490;22.098;2023-02-28T03:00:41;26.77;;;14.32;;
70825;SDS011;58446;41.490;22.098;2023-02-28T03:03:11;29.85;;;14.50;;
70825;SDS011;58446;41.490;22.098;2023-02-28T03:05:47;27.07;;;14.20;;
70825;SDS011;58446;41.490;22.098;2023-02-28T03:08:14;25.63;;;13.57;;
70825;SDS011;58446;41.490;22.098;2023-02-28T03:10:44;24.80;;;13.35;;
70825;SDS011;58446;41.490;22.098;2023-02-28T03:18:46;27.10;;;14.33;;
70825;SDS011;58446;41.490;22.098;2023-02-28T03:24:08;30.48;;;16.05;;
70825;SDS011;58446;41.490;22.098;2023-02-28T03:26:43;28.90;;;14.85;;
70825;SDS011;58446;41.490;22.098;2023-02-28T03:29:22;29.92;;;14.48;;
70825;SDS011;58446;41.490;22.098;2023-02-28T03:34:45;25.00;;;13.57;;
70825;SDS011;58446;41.490;22.098;2023-02-28T03:37:15;25.67;;;13.07;;
70825;SDS011;58446;41.490;22.098;2023-02-28T03:39:46;26.27;;;13.15;;
70825;SDS011;58446;41.490;22.098;2023-02-28T03:42:18;26.30;;;14.13;;
70825;SDS011;58446;41.490;22.098;2023-02-28T03:44:54;27.03;;;12.53;;
70825;SDS011;58446;41.490;22.098;2023-02-28T03:50:08;24.30;;;11.63;;
70825;SDS011;58446;41.490;22.098;2023-02-28T03:52:45;23.48;;;12.32;;
70825;SDS011;58446;41.490;22.098;2023-02-28T03:55:15;24.00;;;12.57;;
70825;SDS011;58446;41.490;22.098;2023-02-28T04:00:46;25.52;;;13.10;;
70825;SDS011;58446;41.490;22.098;2023-02-28T04:03:16;22.88;;;12.27;;
70825;SDS011;58446;41.490;22.098;2023-02-28T04:05:51;23.93;;;13.27;;
70825;SDS011;58446;41.490;22.098;2023-02-28T04:08:18;22.77;;;11.65;;
70825;SDS011;58446;41.490;22.098;2023-02-28T04:10:45;29.48;;;13.02;;
70825;SDS011;58446;41.490;22.098;2023-02-28T04:13:15;26.08;;;12.60;;
70825;SDS011;58446;41.490;22.098;2023-02-28T04:15:41;22.83;;;12.03;;
70825;SDS011;58446;41.490;22.098;2023-02-28T04:18:07;23.42;;;12.10;;
70825;SDS011;58446;41.490;22.098;2023-02-28T04:20:33;23.87;;;11.90;;
70825;SDS011;58446;41.490;22.098;2023-02-28T04:22:58;24.55;;;12.13;;
70825;SDS011;58446;41.490;22.098;2023-02-28T04:25:24;24.70;;;12.13;;
70825;SDS011;58446;41.490;22.098;2023-02-28T04:27:50;23.15;;;12.75;;
70825;SDS011;58446;41.490;22.098;2023-02-28T04:30:15;23.17;;;12.07;;
70825;SDS011;58446;41.490;22.098;2023-02-28T04:32:41;21.67;;;11.65;;
70825;SDS011;58446;41.490;22.098;2023-02-28T04:35:07;25.07;;;12.23;;
70825;SDS011;58446;41.490;22.098;2023-02-28T04:37:33;21.52;;;11.93;;
70825;SDS011;58446;41.490;22.098;2023-02-28T04:40:00;21.90;;;11.50;;
70825;SDS011;58446;41.490;22.098;2023-02-28T04:42:26;42.97;;;24.35;;
70825;SDS011;58446;41.490;22.098;2023-02-28T04:44:52;25.13;;;14.27;;
70825;SDS011;58446;41.490;22.098;2023-02-28T04:47:17;55.85;;;27.10;;
70825;SDS011;58446;41.490;22.098;2023-02-28T04:49:43;28.83;;;15.23;;
70825;SDS011;58446;41.490;22.098;2023-02-28T04:52:09;33.28;;;16.92;;
70825;SDS011;58446;41.490;22.098;2023-02-28T04:54:35;29.53;;;15.93;;
70825;SDS011;58446;41.490;22.098;2023-02-28T04:57:01;36.83;;;20.48;;
70825;SDS011;58446;41.490;22.098;2023-02-28T04:59:26;30.90;;;16.90;;
70825;SDS011;58446;41.490;22.098;2023-02-28T05:01:52;27.40;;;14.80;;
70825;SDS011;58446;41.490;22.098;2023-02-28T05:04:18;29.63;;;14.37;;
70825;SDS011;58446;41.490;22.098;2023-02-28T05:06:43;25.70;;;14.48;;
70825;SDS011;58446;41.490;22.098;2023-02-28T05:09:09;26.17;;;13.47;;
70825;SDS011;58446;41.490;22.098;2023-02-28T05:11:38;26.52;;;14.20;;
70825;SDS011;58446;41.490;22.098;2023-02-28T05:14:05;27.65;;;14.98;;
70825;SDS011;58446;41.490;22.098;2023-02-28T05:16:34;25.45;;;14.07;;
70825;SDS011;58446;41.490;22.098;2023-02-28T05:19:00;25.70;;;15.00;;
70825;SDS011;58446;41.490;22.098;2023-02-28T05:21:29;26.80;;;15.52;;
70825;SDS011;58446;41.490;22.098;2023-02-28T05:24:02;30.98;;;17.05;;
70825;SDS011;58446;41.490;22.098;2023-02-28T05:26:29;38.57;;;18.90;;
70825;SDS011;58446;41.490;22.098;2023-02-28T05:28:56;30.58;;;15.68;;
70825;SDS011;58446;41.490;22.098;2023-02-28T05:31:22;31.00;;;15.02;;
70825;SDS011;58446;41.490;22.098;2023-02-28T05:33:48;28.55;;;15.32;;
70825;SDS011;58446;41.490;22.098;2023-02-28T05:36:13;26.77;;;14.47;;
70825;SDS011;58446;41.490;22.098;2023-02-28T05:38:39;26.00;;;14.30;;
70825;SDS011;58446;41.490;22.098;2023-02-28T05:41:08;30.17;;;16.20;;
70825;SDS011;58446;41.490;22.098;2023-02-28T05:43:35;36.43;;;18.67;;
70825;SDS011;58446;41.490;22.098;2023-02-28T05:46:05;40.63;;;20.33;;
70825;SDS011;58446;41.490;22.098;2023-02-28T05:48:35;32.08;;;15.93;;
70825;SDS011;58446;41.490;22.098;2023-02-28T05:51:02;35.45;;;19.50;;
70825;SDS011;58446;41.490;22.098;2023-02-28T05:53:28;36.63;;;17.48;;
70825;SDS011;58446;41.490;22.098;2023-02-28T05:55:54;29.77;;;16.97;;
70825;SDS011;58446;41.490;22.098;2023-02-28T05:58:20;32.28;;;17.88;;
70825;SDS011;58446;41.490;22.098;2023-02-28T06:00:47;31.55;;;18.70;;
70825;SDS011;58446;41.490;22.098;2023-02-28T06:03:13;30.93;;;16.40;;
70825;SDS011;58446;41.490;22.098;2023-02-28T06:05:38;32.78;;;16.83;;
70825;SDS011;58446;41.490;22.098;2023-02-28T06:08:04;35.87;;;17.27;;
70825;SDS011;58446;41.490;22.098;2023-02-28T06:10:34;30.10;;;15.50;;
70825;SDS011;58446;41.490;22.098;2023-02-28T06:13:00;34.22;;;18.30;;
70825;SDS011;58446;41.490;22.098;2023-02-28T06:15:30;31.27;;;16.55;;
70825;SDS011;58446;41.490;22.098;2023-02-28T06:17:56;33.97;;;17.95;;
70825;SDS011;58446;41.490;22.098;2023-02-28T06:20:23;41.53;;;21.10;;
70825;SDS011;58446;41.490;22.098;2023-02-28T06:22:51;39.40;;;21.23;;
70825;SDS011;58446;41.490;22.098;2023-02-28T06:25:17;38.80;;;20.48;;
70825;SDS011;58446;41.490;22.098;2023-02-28T06:27:43;55.70;;;29.63;;
70825;SDS011;58446;41.490;22.098;2023-02-28T06:30:09;59.77;;;32.43;;
70825;SDS011;58446;41.490;22.098;2023-02-28T06:32:36;36.25;;;22.42;;
70825;SDS011;58446;41.490;22.098;2023-02-28T06:35:01;58.75;;;36.75;;
70825;SDS011;58446;41.490;22.098;2023-02-28T06:37:28;48.23;;;28.23;;
70825;SDS011;58446;41.490;22.098;2023-02-28T06:39:55;68.88;;;32.60;;
70825;SDS011;58446;41.490;22.098;2023-02-28T06:42:24;46.92;;;25.75;;
70825;SDS011;58446;41.490;22.098;2023-02-28T06:44:54;50.10;;;24.98;;
70825;SDS011;58446;41.490;22.098;2023-02-28T06:47:20;43.10;;;23.80;;
70825;SDS011;58446;41.490;22.098;2023-02-28T06:49:47;41.05;;;23.67;;
70825;SDS011;58446;41.490;22.098;2023-02-28T06:52:13;50.67;;;26.38;;
70825;SDS011;58446;41.490;22.098;2023-02-28T06:54:40;42.47;;;23.60;;
70825;SDS011;58446;41.490;22.098;2023-02-28T06:57:06;44.15;;;25.38;;
70825;SDS011;58446;41.490;22.098;2023-02-28T06:59:32;40.97;;;22.80;;
70825;SDS011;58446;41.490;22.098;2023-02-28T07:01:57;42.83;;;24.52;;
70825;SDS011;58446;41.490;22.098;2023-02-28T07:04:23;43.30;;;21.87;;
70825;SDS011;58446;41.490;22.098;2023-02-28T07:06:49;44.25;;;24.50;;
70825;SDS011;58446;41.490;22.098;2023-02-28T07:09:15;34.23;;;20.40;;
70825;SDS011;58446;41.490;22.098;2023-02-28T07:11:40;41.10;;;20.60;;
70825;SDS011;58446;41.490;22.098;2023-02-28T07:14:08;36.15;;;20.65;;
70825;SDS011;58446;41.490;22.098;2023-02-28T07:16:33;35.33;;;19.00;;
70825;SDS011;58446;41.490;22.098;2023-02-28T07:19:00;31.77;;;17.38;;
70825;SDS011;58446;41.490;22.098;2023-02-28T07:21:26;32.35;;;18.73;;
70825;SDS011;58446;41.490;22.098;2023-02-28T07:23:51;35.53;;;20.20;;
70825;SDS011;58446;41.490;22.098;2023-02-28T07:26:18;37.58;;;19.10;;
70825;SDS011;58446;41.490;22.098;2023-02-28T07:28:45;33.70;;;18.43;;
70825;SDS011;58446;41.490;22.098;2023-02-28T07:31:12;36.40;;;20.70;;
70825;SDS011;58446;41.490;22.098;2023-02-28T07:33:39;32.80;;;18.00;;
70825;SDS011;58446;41.490;22.098;2023-02-28T07:36:15;34.42;;;20.83;;
70825;SDS011;58446;41.490;22.098;2023-02-28T07:38:51;34.50;;;18.80;;
70825;SDS011;58446;41.490;22.098;2023-02-28T07:41:20;31.27;;;17.33;;
70825;SDS011;58446;41.490;22.098;2023-02-28T07:43:47;34.22;;;17.90;;
70825;SDS011;58446;41.490;22.098;2023-02-28T07:46:13;32.50;;;17.75;;
70825;SDS011;58446;41.490;22.098;2023-02-28T07:48:41;32.17;;;16.83;;
70825;SDS011;58446;41.490;22.098;2023-02-28T07:51:06;28.80;;;15.68;;
70825;SDS011;58446;41.490;22.098;2023-02-28T07:53:32;30.55;;;15.27;;
70825;SDS011;58446;41.490;22.098;2023-02-28T07:55:59;28.23;;;15.13;;
70825;SDS011;58446;41.490;22.098;2023-02-28T07:58:26;27.92;;;14.80;;
70825;SDS011;58446;41.490;22.098;2023-02-28T08:00:53;31.92;;;16.90;;
70825;SDS011;58446;41.490;22.098;2023-02-28T08:03:19;28.63;;;13.83;;
70825;SDS011;58446;41.490;22.098;2023-02-28T08:05:46;25.50;;;13.82;;
70825;SDS011;58446;41.490;22.098;2023-02-28T08:08:13;27.00;;;14.45;;
70825;SDS011;58446;41.490;22.098;2023-02-28T08:10:39;27.65;;;15.30;;
70825;SDS011;58446;41.490;22.098;2023-02-28T08:13:05;32.00;;;16.63;;
70825;SDS011;58446;41.490;22.098;2023-02-28T08:15:30;29.67;;;15.98;;
70825;SDS011;58446;41.490;22.098;2023-02-28T08:17:56;29.77;;;13.80;;
70825;SDS011;58446;41.490;22.098;2023-02-28T08:20:22;27.00;;;13.95;;
70825;SDS011;58446;41.490;22.098;2023-02-28T08:22:49;25.60;;;13.50;;
70825;SDS011;58446;41.490;22.098;2023-02-28T08:25:14;24.70;;;12.87;;
70825;SDS011;58446;41.490;22.098;2023-02-28T08:27:40;25.08;;;13.07;;
70825;SDS011;58446;41.490;22.098;2023-02-28T08:30:06;26.67;;;13.73;;
70825;SDS011;58446;41.490;22.098;2023-02-28T08:32:33;27.30;;;13.03;;
70825;SDS011;58446;41.490;22.098;2023-02-28T08:34:59;24.05;;;13.57;;
70825;SDS011;58446;41.490;22.098;2023-02-28T08:37:25;26.00;;;13.38;;
70825;SDS011;58446;41.490;22.098;2023-02-28T08:39:51;27.50;;;13.23;;
70825;SDS011;58446;41.490;22.098;2023-02-28T08:42:16;25.92;;;12.55;;
70825;SDS011;58446;41.490;22.098;2023-02-28T08:44:42;32.60;;;16.25;;
70825;SDS011;58446;41.490;22.098;2023-02-28T08:47:07;28.47;;;15.77;;
70825;SDS011;58446;41.490;22.098;2023-02-28T08:49:33;27.33;;;13.83;;
70825;SDS011;58446;41.490;22.098;2023-02-28T08:51:59;29.98;;;17.60;;
70825;SDS011;58446;41.490;22.098;2023-02-28T08:54:24;23.57;;;12.43;;
70825;SDS011;58446;41.490;22.098;2023-02-28T08:56:50;33.92;;;15.65;;
70825;SDS011;58446;41.490;22.098;2023-02-28T08:59:16;100.97;;;42.47;;
70825;SDS011;58446;41.490;22.098;2023-02-28T09:01:41;40.22;;;18.52;;
70825;SDS011;58446;41.490;22.098;2023-02-28T09:04:08;40.00;;;17.67;;
70825;SDS011;58446;41.490;22.098;2023-02-28T09:06:36;29.90;;;15.07;;
70825;SDS011;58446;41.490;22.098;2023-02-28T09:09:01;31.67;;;13.35;;
70825;SDS011;58446;41.490;22.098;2023-02-28T09:11:29;34.60;;;16.20;;
70825;SDS011;58446;41.490;22.098;2023-02-28T09:13:54;29.93;;;14.93;;
70825;SDS011;58446;41.490;22.098;2023-02-28T09:16:20;27.55;;;12.90;;
70825;SDS011;58446;41.490;22.098;2023-02-28T09:18:46;28.23;;;12.82;;
70825;SDS011;58446;41.490;22.098;2023-02-28T09:21:14;31.87;;;11.23;;
70825;SDS011;58446;41.490;22.098;2023-02-28T09:23:41;29.17;;;12.63;;
70825;SDS011;58446;41.490;22.098;2023-02-28T09:26:17;26.33;;;13.77;;
70825;SDS011;58446;41.490;22.098;2023-02-28T09:28:50;25.20;;;11.55;;
70825;SDS011;58446;41.490;22.098;2023-02-28T09:31:20;22.88;;;11.63;;
70825;SDS011;58446;41.490;22.098;2023-02-28T09:33:48;22.10;;;10.97;;
70825;SDS011;58446;41.490;22.098;2023-02-28T09:36:15;22.73;;;11.80;;
70825;SDS011;58446;41.490;22.098;2023-02-28T09:38:41;28.83;;;11.80;;
70825;SDS011;58446;41.490;22.098;2023-02-28T09:41:14;25.38;;;11.38;;
70825;SDS011;58446;41.490;22.098;2023-02-28T09:43:44;30.53;;;13.63;;
70825;SDS011;58446;41.490;22.098;2023-02-28T09:49:11;30.95;;;12.77;;
70825;SDS011;58446;41.490;22.098;2023-02-28T09:54:24;40.83;;;21.50;;
70825;SDS011;58446;41.490;22.098;2023-02-28T09:59:33;33.63;;;15.25;;
70825;SDS011;58446;41.490;22.098;2023-02-28T10:07:39;24.23;;;12.18;;
70825;SDS011;58446;41.490;22.098;2023-02-28T10:10:17;25.53;;;11.83;;
70825;SDS011;58446;41.490;22.098;2023-02-28T10:13:45;25.63;;;12.40;;
70825;SDS011;58446;41.490;22.098;2023-02-28T10:16:20;37.38;;;12.70;;
70825;SDS011;58446;41.490;22.098;2023-02-28T10:18:55;30.85;;;12.32;;
70825;SDS011;58446;41.490;22.098;2023-02-28T10:21:35;31.58;;;14.73;;
70825;SDS011;58446;41.490;22.098;2023-02-28T10:24:26;28.23;;;14.63;;
70825;SDS011;58446;41.490;22.098;2023-02-28T10:27:01;31.15;;;14.10;;
70825;SDS011;58446;41.490;22.098;2023-02-28T10:29:53;25.17;;;12.10;;
70825;SDS011;58446;41.490;22.098;2023-02-28T10:32:24;26.88;;;12.80;;
70825;SDS011;58446;41.490;22.098;2023-02-28T10:35:16;31.02;;;12.70;;
70825;SDS011;58446;41.490;22.098;2023-02-28T10:37:45;37.00;;;15.67;;
70825;SDS011;58446;41.490;22.098;2023-02-28T10:43:00;23.38;;;11.40;;
70825;SDS011;58446;41.490;22.098;2023-02-28T10:45:26;24.38;;;11.27;;
70825;SDS011;58446;41.490;22.098;2023-02-28T10:53:17;25.60;;;12.10;;
70825;SDS011;58446;41.490;22.098;2023-02-28T10:56:03;27.48;;;13.57;;
70825;SDS011;58446;41.490;22.098;2023-02-28T11:01:34;24.50;;;10.68;;
70825;SDS011;58446;41.490;22.098;2023-02-28T11:04:18;27.03;;;11.93;;
70825;SDS011;58446;41.490;22.098;2023-02-28T11:07:02;29.25;;;14.40;;
70825;SDS011;58446;41.490;22.098;2023-02-28T11:09:38;28.42;;;13.00;;
70825;SDS011;58446;41.490;22.098;2023-02-28T11:12:06;28.45;;;12.05;;
70825;SDS011;58446;41.490;22.098;2023-02-28T11:14:40;29.17;;;12.02;;
70825;SDS011;58446;41.490;22.098;2023-02-28T11:17:24;26.47;;;13.23;;
70825;SDS011;58446;41.490;22.098;2023-02-28T11:22:45;23.95;;;11.10;;
70825;SDS011;58446;41.490;22.098;2023-02-28T11:31:04;22.63;;;12.30;;
70825;SDS011;58446;41.490;22.098;2023-02-28T11:33:31;24.70;;;11.50;;
70825;SDS011;58446;41.490;22.098;2023-02-28T11:36:08;27.88;;;13.95;;
70825;SDS011;58446;41.490;22.098;2023-02-28T11:38:36;29.40;;;14.10;;
70825;SDS011;58446;41.490;22.098;2023-02-28T11:41:05;27.45;;;11.90;;
70825;SDS011;58446;41.490;22.098;2023-02-28T11:43:36;27.30;;;12.77;;
70825;SDS011;58446;41.490;22.098;2023-02-28T11:49:31;26.15;;;12.15;;
70825;SDS011;58446;41.490;22.098;2023-02-28T11:52:02;27.75;;;12.70;;
70825;SDS011;58446;41.490;22.098;2023-02-28T12:03:14;22.90;;;10.18;;
70825;SDS011;58446;41.490;22.098;2023-02-28T12:06:09;24.98;;;11.25;;
70825;SDS011;58446;41.490;22.098;2023-02-28T12:09:05;27.75;;;10.25;;
70825;SDS011;58446;41.490;22.098;2023-02-28T12:17:11;29.83;;;12.27;;
70825;SDS011;58446;41.490;22.098;2023-02-28T12:22:22;33.03;;;13.37;;
70825;SDS011;58446;41.490;22.098;2023-02-28T12:27:37;30.33;;;12.88;;
70825;SDS011;58446;41.490;22.098;2023-02-28T12:30:08;32.95;;;13.45;;
70825;SDS011;58446;41.490;22.098;2023-02-28T12:33:01;30.43;;;10.87;;
70825;SDS011;58446;41.490;22.098;2023-02-28T12:35:38;24.15;;;10.48;;
70825;SDS011;58446;41.490;22.098;2023-02-28T12:38:05;22.60;;;11.00;;
70825;SDS011;58446;41.490;22.098;2023-02-28T12:40:45;28.85;;;11.57;;
70825;SDS011;58446;41.490;22.098;2023-02-28T12:43:13;24.25;;;11.52;;
70825;SDS011;58446;41.490;22.098;2023-02-28T12:46:17;32.90;;;12.33;;
70825;SDS011;58446;41.490;22.098;2023-02-28T12:48:41;26.65;;;10.35;;
70825;SDS011;58446;41.490;22.098;2023-02-28T12:51:11;25.38;;;11.68;;
70825;SDS011;58446;41.490;22.098;2023-02-28T12:56:18;30.50;;;13.80;;
70825;SDS011;58446;41.490;22.098;2023-02-28T12:59:39;28.63;;;10.80;;
70825;SDS011;58446;41.490;22.098;2023-02-28T13:07:38;22.05;;;10.07;;
70825;SDS011;58446;41.490;22.098;2023-02-28T13:10:23;28.10;;;11.68;;
70825;SDS011;58446;41.490;22.098;2023-02-28T13:12:50;27.80;;;11.33;;
70825;SDS011;58446;41.490;22.098;2023-02-28T13:15:25;32.78;;;10.75;;
70825;SDS011;58446;41.490;22.098;2023-02-28T13:17:54;29.00;;;11.77;;
70825;SDS011;58446;41.490;22.098;2023-02-28T13:20:24;25.00;;;11.27;;
70825;SDS011;58446;41.490;22.098;2023-02-28T13:23:00;39.85;;;15.65;;
70825;SDS011;58446;41.490;22.098;2023-02-28T13:27:59;30.50;;;14.27;;
70825;SDS011;58446;41.490;22.098;2023-02-28T13:33:37;47.13;;;24.40;;
70825;SDS011;58446;41.490;22.098;2023-02-28T13:36:26;34.85;;;15.30;;
70825;SDS011;58446;41.490;22.098;2023-02-28T13:38:57;36.73;;;15.37;;
70825;SDS011;58446;41.490;22.098;2023-02-28T13:44:39;32.33;;;14.75;;
70825;SDS011;58446;41.490;22.098;2023-02-28T13:51:48;34.63;;;16.55;;
70825;SDS011;58446;41.490;22.098;2023-02-28T13:57:22;35.22;;;15.52;;
70825;SDS011;58446;41.490;22.098;2023-02-28T14:05:30;42.20;;;16.73;;
70825;SDS011;58446;41.490;22.098;2023-02-28T14:07:59;30.13;;;15.47;;
70825;SDS011;58446;41.490;22.098;2023-02-28T14:10:31;46.85;;;18.98;;
70825;SDS011;58446;41.490;22.098;2023-02-28T14:13:02;63.10;;;28.42;;
70825;SDS011;58446;41.490;22.098;2023-02-28T14:15:41;29.38;;;12.15;;
70825;SDS011;58446;41.490;22.098;2023-02-28T14:29:30;26.63;;;12.82;;
70825;SDS011;58446;41.490;22.098;2023-02-28T14:35:03;28.23;;;12.83;;
70825;SDS011;58446;41.490;22.098;2023-02-28T14:37:51;25.33;;;11.50;;
70825;SDS011;58446;41.490;22.098;2023-02-28T14:40:24;25.27;;;11.98;;
70825;SDS011;58446;41.490;22.098;2023-02-28T14:42:57;28.75;;;11.93;;
70825;SDS011;58446;41.490;22.098;2023-02-28T14:45:29;33.83;;;12.52;;
70825;SDS011;58446;41.490;22.098;2023-02-28T14:47:56;29.60;;;11.93;;
70825;SDS011;58446;41.490;22.098;2023-02-28T14:50:26;31.70;;;12.65;;
70825;SDS011;58446;41.490;22.098;2023-02-28T14:52:55;29.08;;;12.27;;
70825;SDS011;58446;41.490;22.098;2023-02-28T14:55:43;24.38;;;11.73;;
70825;SDS011;58446;41.490;22.098;2023-02-28T14:58:26;25.60;;;11.38;;
70825;SDS011;58446;41.490;22.098;2023-02-28T15:00:58;25.63;;;10.87;;
70825;SDS011;58446;41.490;22.098;2023-02-28T15:03:32;31.42;;;11.48;;
70825;SDS011;58446;41.490;22.098;2023-02-28T15:06:12;34.45;;;14.90;;
70825;SDS011;58446;41.490;22.098;2023-02-28T15:08:40;49.00;;;18.65;;
70825;SDS011;58446;41.490;22.098;2023-02-28T15:11:13;53.42;;;20.90;;
70825;SDS011;58446;41.490;22.098;2023-02-28T15:13:48;31.70;;;14.73;;
70825;SDS011;58446;41.490;22.098;2023-02-28T15:18:54;57.38;;;25.45;;
70825;SDS011;58446;41.490;22.098;2023-02-28T15:21:24;84.20;;;32.75;;
70825;SDS011;58446;41.490;22.098;2023-02-28T15:24:15;50.92;;;23.00;;
70825;SDS011;58446;41.490;22.098;2023-02-28T15:26:53;48.93;;;20.13;;
70825;SDS011;58446;41.490;22.098;2023-02-28T15:29:23;50.28;;;22.30;;
70825;SDS011;58446;41.490;22.098;2023-02-28T15:31:55;52.08;;;21.75;;
70825;SDS011;58446;41.490;22.098;2023-02-28T15:37:00;52.17;;;26.10;;
70825;SDS011;58446;41.490;22.098;2023-02-28T15:39:27;44.93;;;20.87;;
70825;SDS011;58446;41.490;22.098;2023-02-28T15:42:10;46.30;;;19.73;;
70825;SDS011;58446;41.490;22.098;2023-02-28T15:44:44;40.88;;;19.30;;
70825;SDS011;58446;41.490;22.098;2023-02-28T15:47:17;37.95;;;16.55;;
70825;SDS011;58446;41.490;22.098;2023-02-28T15:52:22;31.73;;;15.23;;
70825;SDS011;58446;41.490;22.098;2023-02-28T15:54:56;31.85;;;14.60;;
70825;SDS011;58446;41.490;22.098;2023-02-28T15:57:27;59.60;;;15.52;;
70825;SDS011;58446;41.490;22.098;2023-02-28T16:00:00;31.95;;;13.90;;
70825;SDS011;58446;41.490;22.098;2023-02-28T16:02:30;28.20;;;13.40;;
70825;SDS011;58446;41.490;22.098;2023-02-28T16:04:57;31.57;;;12.67;;
70825;SDS011;58446;41.490;22.098;2023-02-28T16:07:33;25.17;;;9.73;;
70825;SDS011;58446;41.490;22.098;2023-02-28T16:10:00;25.25;;;9.68;;
70825;SDS011;58446;41.490;22.098;2023-02-28T16:12:27;25.80;;;10.48;;
70825;SDS011;58446;41.490;22.098;2023-02-28T16:14:55;29.88;;;12.38;;
70825;SDS011;58446;41.490;22.098;2023-02-28T16:17:27;24.37;;;10.53;;
70825;SDS011;58446;41.490;22.098;2023-02-28T16:19:55;24.95;;;10.25;;
70825;SDS011;58446;41.490;22.098;2023-02-28T16:22:21;52.58;;;19.92;;
70825;SDS011;58446;41.490;22.098;2023-02-28T16:24:47;35.08;;;13.63;;
70825;SDS011;58446;41.490;22.098;2023-02-28T16:27:15;28.10;;;12.50;;
70825;SDS011;58446;41.490;22.098;2023-02-28T16:29:43;31.63;;;15.27;;
70825;SDS011;58446;41.490;22.098;2023-02-28T16:32:10;25.85;;;11.57;;
70825;SDS011;58446;41.490;22.098;2023-02-28T16:34:39;24.48;;;10.88;;
70825;SDS011;58446;41.490;22.098;2023-02-28T16:37:08;42.70;;;23.70;;
70825;SDS011;58446;41.490;22.098;2023-02-28T16:39:36;44.72;;;19.15;;
70825;SDS011;58446;41.490;22.098;2023-02-28T16:42:02;25.52;;;10.70;;
70825;SDS011;58446;41.490;22.098;2023-02-28T16:46:56;26.63;;;11.38;;
70825;SDS011;58446;41.490;22.098;2023-02-28T16:49:24;27.15;;;12.52;;
70825;SDS011;58446;41.490;22.098;2023-02-28T16:51:50;31.25;;;13.85;;
70825;SDS011;58446;41.490;22.098;2023-02-28T16:54:16;27.70;;;13.13;;
70825;SDS011;58446;41.490;22.098;2023-02-28T16:56:42;23.35;;;11.52;;
70825;SDS011;58446;41.490;22.098;2023-02-28T16:59:10;28.63;;;11.73;;